Time;durP1;ratioP1;P1;durP2;ratioP2;P2;SDS_P1;SDS_P2;PMS_P1;PMS_P2;Temp;Humidity;BMP_temperature;BMP_pressure;BME280_temperature;BME280_humidity;BME280_pressure;Samples;Min_cycle;Max_cycle;Signal;HPM_P1;HPM_P2
2021/11/29 00:04:43;;;;;;;11.50;8.97;;;1.90;99.90;;;;;;5138410;28;20428;-88
2021/11/29 00:10:42;;;;;;;15.73;9.07;;;2.00;99.90;;;;;;5138940;28;20496;-88
2021/11/29 00:13:33;;;;;;;10.53;8.40;;;2.00;99.90;;;;;;5138356;28;20448;-88
2021/11/29 00:16:30;;;;;;;8.80;7.10;;;2.10;99.90;;;;;;5137963;28;20436;-88
2021/11/29 00:19:12;;;;;;;7.77;6.97;;;2.00;99.90;;;;;;5136612;28;20443;-88
2021/11/29 00:22:07;;;;;;;7.57;6.83;;;2.20;99.90;;;;;;5137651;28;20506;-87
2021/11/29 00:27:48;;;;;;;6.47;5.87;;;2.20;99.90;;;;;;5137211;27;20478;-88
2021/11/29 00:30:56;;;;;;;5.57;5.17;;;2.20;99.90;;;;;;5138655;27;20467;-88
2021/11/29 00:44:02;;;;;;;6.57;4.30;;;2.10;99.90;;;;;;5135420;27;20472;-88
2021/11/29 00:46:53;;;;;;;4.03;3.73;;;2.10;99.90;;;;;;5121683;28;20484;-88
2021/11/29 00:49:21;;;;;;;5.27;4.17;;;2.10;99.90;;;;;;5138533;27;20441;-87
2021/11/29 00:52:11;;;;;;;4.53;3.97;;;2.10;99.90;;;;;;5138614;27;20450;-89
2021/11/29 00:55:10;;;;;;;5.13;4.13;;;2.10;99.90;;;;;;5139550;27;20440;-88
2021/11/29 00:58:25;;;;;;;4.80;4.40;;;2.20;99.90;;;;;;5138257;27;20432;-88
2021/11/29 01:01:22;;;;;;;4.67;4.27;;;2.20;99.90;;;;;;5139251;27;20468;-88
2021/11/29 01:11:10;;;;;;;4.93;4.53;;;2.20;99.90;;;;;;5138149;27;20425;-87
2021/11/29 01:14:00;;;;;;;4.53;4.23;;;2.30;99.90;;;;;;5056236;28;20449;-88
2021/11/29 01:17:12;;;;;;;4.73;4.20;;;2.30;99.90;;;;;;5056500;28;20449;-88
2021/11/29 01:23:49;;;;;;;4.97;4.57;;;2.30;99.90;;;;;;5055683;28;20463;-88
2021/11/29 01:27:08;;;;;;;4.43;4.03;;;2.10;99.90;;;;;;5055434;28;20466;-88
2021/11/29 01:33:33;;;;;;;5.23;4.83;;;2.10;99.90;;;;;;5056913;28;20472;-88
2021/11/29 01:36:37;;;;;;;5.93;4.67;;;2.00;99.90;;;;;;5053851;28;20462;-88
2021/11/29 01:43:21;;;;;;;5.93;5.43;;;2.00;99.90;;;;;;5129305;27;20472;-88
2021/11/29 01:46:22;;;;;;;5.93;5.13;;;2.00;99.90;;;;;;5125211;27;20460;-88
2021/11/29 01:55:18;;;;;;;5.30;4.70;;;1.80;99.90;;;;;;5141489;27;20449;-87
2021/11/29 02:08:16;;;;;;;4.30;3.90;;;1.70;99.90;;;;;;5142850;27;20419;-87
2021/11/29 02:11:20;;;;;;;5.30;3.90;;;1.90;99.90;;;;;;5142541;27;20436;-87
2021/11/29 02:14:20;;;;;;;4.17;3.77;;;1.90;99.90;;;;;;5142331;27;20428;-87
2021/11/29 02:17:18;;;;;;;4.10;3.70;;;2.00;99.90;;;;;;5139862;27;20428;-88
2021/11/29 02:20:21;;;;;;;4.00;3.53;;;2.00;99.90;;;;;;5140924;27;20435;-88
2021/11/29 02:26:39;;;;;;;5.87;3.90;;;2.00;99.90;;;;;;5142495;27;20388;-88
2021/11/29 02:43:02;;;;;;;3.80;3.20;;;2.00;99.90;;;;;;5078206;28;20470;-88
2021/11/29 02:46:42;;;;;;;3.60;3.30;;;1.90;99.90;;;;;;5080029;28;20463;-88
2021/11/29 02:53:19;;;;;;;6.60;3.20;;;1.90;99.90;;;;;;5078757;28;20436;-88
2021/11/29 03:10:40;;;;;;;6.10;2.97;;;1.80;99.90;;;;;;5140851;27;20492;-88
2021/11/29 03:26:56;;;;;;;5.17;3.13;;;1.70;99.90;;;;;;5139912;27;20442;-87
2021/11/29 03:42:12;;;;;;;5.90;2.80;;;1.80;99.90;;;;;;5254729;22;20480;-87
2021/11/29 03:45:01;;;;;;;3.90;2.40;;;1.80;99.90;;;;;;5119059;28;20461;-87
2021/11/29 03:47:31;;;;;;;7.00;3.13;;;1.90;99.90;;;;;;5118405;28;20426;-88
2021/11/29 03:50:03;;;;;;;2.97;2.67;;;2.00;99.90;;;;;;5129708;22;20477;-88
2021/11/29 03:52:32;;;;;;;4.40;2.83;;;1.80;99.90;;;;;;5118238;28;20429;-88
2021/11/29 03:55:16;;;;;;;2.80;2.60;;;1.80;99.90;;;;;;5118457;28;20430;-86
2021/11/29 03:58:01;;;;;;;4.03;2.10;;;2.00;99.90;;;;;;5118839;28;20464;-88
2021/11/29 04:00:35;;;;;;;4.57;2.37;;;1.90;99.90;;;;;;5118233;28;20461;-87
2021/11/29 04:03:08;;;;;;;3.60;2.37;;;2.00;99.90;;;;;;5145073;22;20471;-87
2021/11/29 04:16:28;;;;;;;2.63;1.70;;;1.90;99.90;;;;;;5131465;22;20487;-86
2021/11/29 04:19:03;;;;;;;6.10;1.97;;;1.90;99.90;;;;;;5138702;28;20453;-87
2021/11/29 04:22:21;;;;;;;1.60;1.50;;;2.00;99.90;;;;;;5138254;28;20448;-88
2021/11/29 04:24:57;;;;;;;5.10;1.47;;;2.00;99.90;;;;;;5135833;28;20500;-86
2021/11/29 04:27:29;;;;;;;2.30;1.50;;;2.00;99.90;;;;;;5113320;28;20443;-86
2021/11/29 04:30:07;;;;;;;2.13;1.63;;;2.00;99.90;;;;;;5131274;28;20478;-87
2021/11/29 04:32:36;;;;;;;2.10;1.70;;;1.90;99.90;;;;;;5124400;28;20441;-87
2021/11/29 04:35:10;;;;;;;2.73;1.57;;;1.90;99.90;;;;;;5111081;28;20573;-87
2021/11/29 04:37:39;;;;;;;2.30;1.47;;;1.80;99.90;;;;;;5109791;28;20449;-86
2021/11/29 04:40:13;;;;;;;2.80;1.30;;;1.80;99.90;;;;;;5110681;28;20458;-86
2021/11/29 04:42:47;;;;;;;3.70;1.50;;;1.80;99.90;;;;;;5110038;28;20507;-86
2021/11/29 04:45:15;;;;;;;2.53;1.70;;;1.70;99.90;;;;;;5110547;28;20460;-86
2021/11/29 04:47:52;;;;;;;3.15;1.88;;;1.80;99.90;;;;;;5092101;28;20426;-86
2021/11/29 04:50:22;;;;;;;3.13;1.30;;;1.90;99.90;;;;;;5112214;28;20216;-86
2021/11/29 04:52:54;;;;;;;2.60;1.30;;;1.90;99.90;;;;;;5110381;28;20461;-86
2021/11/29 04:55:23;;;;;;;2.03;1.40;;;1.90;99.90;;;;;;5110793;28;20450;-86
2021/11/29 04:57:51;;;;;;;3.53;1.00;;;1.90;99.90;;;;;;5111067;28;20462;-87
2021/11/29 05:00:22;;;;;;;4.10;1.27;;;1.90;99.90;;;;;;5100431;28;20449;-87
2021/11/29 05:02:53;;;;;;;3.27;1.40;;;1.90;99.90;;;;;;5128524;28;20515;-86
2021/11/29 05:05:38;;;;;;;2.27;1.33;;;1.70;99.90;;;;;;5133625;28;20449;-85
2021/11/29 05:08:19;;;;;;;2.80;1.00;;;1.70;99.90;;;;;;5121524;28;20437;-88
2021/11/29 05:10:54;;;;;;;1.33;1.20;;;1.80;99.90;;;;;;5138352;28;20441;-87
2021/11/29 05:13:32;;;;;;;2.60;1.80;;;1.90;99.90;;;;;;5138131;28;20449;-87
2021/11/29 05:16:14;;;;;;;1.70;1.60;;;1.80;99.90;;;;;;5138201;28;20441;-88
2021/11/29 05:19:06;;;;;;;2.13;1.83;;;1.70;99.90;;;;;;5135383;28;20460;-87
2021/11/29 05:21:52;;;;;;;2.50;2.10;;;2.00;99.90;;;;;;5138571;28;20516;-88
2021/11/29 05:24:40;;;;;;;3.70;2.70;;;1.90;99.90;;;;;;5137649;28;20497;-88
2021/11/29 05:27:15;;;;;;;3.60;2.90;;;1.90;99.90;;;;;;5137182;28;20440;-87
2021/11/29 05:29:49;;;;;;;4.67;3.40;;;1.80;99.90;;;;;;5136914;28;20842;-86
2021/11/29 05:32:22;;;;;;;3.93;3.47;;;1.80;99.90;;;;;;5134659;28;20456;-86
2021/11/29 05:34:54;;;;;;;3.83;3.47;;;2.10;99.90;;;;;;5134386;28;20444;-87
2021/11/29 05:37:36;;;;;;;4.50;3.07;;;2.10;99.90;;;;;;5133710;28;20425;-86
2021/11/29 05:40:13;;;;;;;2.97;2.77;;;2.10;99.90;;;;;;5117081;28;20496;-86
2021/11/29 05:42:42;;;;;;;4.53;3.07;;;2.10;99.90;;;;;;5116097;28;20459;-87
2021/11/29 05:45:17;;;;;;;3.37;3.07;;;2.10;99.90;;;;;;5134578;28;20454;-87
2021/11/29 05:47:51;;;;;;;3.37;2.80;;;1.90;99.90;;;;;;5135790;28;20440;-87
2021/11/29 05:50:31;;;;;;;3.93;2.87;;;2.10;99.90;;;;;;5135436;28;20477;-86
2021/11/29 05:53:04;;;;;;;2.50;2.30;;;2.00;99.90;;;;;;5136238;28;20457;-87
2021/11/29 05:55:37;;;;;;;2.33;2.13;;;2.10;99.90;;;;;;5135089;28;20440;-87
2021/11/29 05:58:18;;;;;;;2.20;1.63;;;2.00;99.90;;;;;;5133481;28;20498;-86
2021/11/29 06:00:55;;;;;;;6.35;2.50;;;2.00;99.90;;;;;;5134212;28;20453;-87
2021/11/29 06:03:23;;;;;;;5.87;2.23;;;2.00;99.90;;;;;;5135007;28;20277;-87
2021/11/29 06:05:58;;;;;;;5.40;1.80;;;1.90;99.90;;;;;;5134572;28;20471;-86
2021/11/29 06:08:35;;;;;;;6.47;2.30;;;1.90;99.90;;;;;;5116851;28;20412;-87
2021/11/29 06:11:10;;;;;;;4.83;2.13;;;1.90;99.90;;;;;;5133800;28;20477;-87
2021/11/29 06:13:44;;;;;;;7.07;2.43;;;1.90;99.90;;;;;;5132713;28;20482;-86
2021/11/29 06:16:15;;;;;;;2.77;2.00;;;1.80;99.90;;;;;;5135156;28;20437;-87
2021/11/29 06:19:31;;;;;;;4.83;2.27;;;1.70;99.90;;;;;;5118197;28;20501;-87
2021/11/29 06:22:31;;;;;;;4.37;1.90;;;1.60;99.90;;;;;;5137768;28;20545;-87
2021/11/29 06:25:21;;;;;;;3.40;1.77;;;1.70;99.90;;;;;;5137313;28;20496;-87
2021/11/29 06:31:23;;;;;;;2.43;2.17;;;1.60;99.90;;;;;;5141131;28;20481;-87
2021/11/29 06:33:59;;;;;;;5.40;2.30;;;1.70;99.90;;;;;;5140799;28;20433;-88
2021/11/29 06:36:33;;;;;;;3.40;2.03;;;1.70;99.90;;;;;;5141139;28;20440;-88
2021/11/29 06:39:25;;;;;;;2.17;2.07;;;1.70;99.90;;;;;;5138369;28;20476;-88
2021/11/29 06:45:26;;;;;;;4.97;2.50;;;1.70;99.90;;;;;;5140587;28;20477;-88
2021/11/29 06:48:22;;;;;;;5.13;3.13;;;1.70;99.90;;;;;;5139808;28;20434;-86
2021/11/29 06:53:52;;;;;;;4.57;3.03;;;1.70;99.90;;;;;;5139870;28;20424;-87
2021/11/29 06:56:57;;;;;;;7.60;3.10;;;1.70;99.90;;;;;;5141113;28;20441;-87
2021/11/29 06:59:25;;;;;;;3.30;2.60;;;1.60;99.90;;;;;;5140086;28;20444;-88
2021/11/29 07:02:16;;;;;;;3.20;2.70;;;1.80;99.90;;;;;;5140088;28;20472;-87
2021/11/29 07:05:34;;;;;;;5.70;3.27;;;1.70;99.90;;;;;;5140590;28;20453;-88
2021/11/29 07:08:13;;;;;;;4.27;2.67;;;1.70;99.90;;;;;;5140431;28;20455;-87
2021/11/29 07:10:55;;;;;;;7.27;3.23;;;1.80;99.90;;;;;;5140593;28;20436;-87
2021/11/29 07:27:26;;;;;;;6.37;3.03;;;1.70;99.90;;;;;;5143671;27;20459;-87
2021/11/29 07:44:31;;;;;;;4.57;3.90;;;1.80;99.90;;;;;;5096848;28;20473;-87
2021/11/29 07:47:17;;;;;;;10.93;3.33;;;1.80;99.90;;;;;;5098483;28;20439;-87
2021/11/29 07:49:49;;;;;;;6.77;3.60;;;1.70;99.90;;;;;;5098140;28;20418;-87
2021/11/29 07:52:49;;;;;;;6.00;3.67;;;1.80;99.90;;;;;;5098710;28;20455;-88
2021/11/29 07:58:37;;;;;;;6.07;3.50;;;1.90;99.90;;;;;;5097779;28;20431;-86
2021/11/29 08:01:26;;;;;;;4.33;3.93;;;1.90;99.90;;;;;;5077722;28;20435;-88
2021/11/29 08:04:34;;;;;;;4.23;3.70;;;2.00;99.90;;;;;;5078255;28;20455;-87
2021/11/29 08:07:04;;;;;;;4.70;3.67;;;2.00;99.90;;;;;;5060908;28;20470;-87
2021/11/29 08:09:35;;;;;;;6.67;4.33;;;2.00;99.90;;;;;;5060783;28;20434;-86
2021/11/29 08:12:11;;;;;;;5.67;4.10;;;2.20;99.90;;;;;;5061341;28;20448;-86
2021/11/29 08:15:17;;;;;;;4.67;3.97;;;2.20;99.90;;;;;;5078253;28;20470;-87
2021/11/29 08:18:06;;;;;;;6.03;4.27;;;2.40;99.90;;;;;;5078583;28;20439;-88
2021/11/29 08:20:37;;;;;;;8.17;4.33;;;2.30;99.90;;;;;;5076978;28;20458;-86
2021/11/29 08:25:56;;;;;;;6.03;4.63;;;2.30;99.90;;;;;;5057977;22;20439;-87
2021/11/29 08:28:31;;;;;;;6.10;4.10;;;2.20;99.90;;;;;;5095843;28;20178;-85
2021/11/29 08:31:05;;;;;;;5.17;4.67;;;2.30;99.90;;;;;;5096254;28;20533;-86
2021/11/29 08:34:17;;;;;;;5.00;4.27;;;2.10;99.90;;;;;;5098410;28;20421;-86
2021/11/29 09:07:46;;;;;;;7.20;3.40;;;2.50;99.90;;;;;;5037943;28;20464;-88
2021/11/29 09:17:29;;;;;;;5.23;3.23;;;2.60;99.90;;;;;;5055075;28;20458;-84
2021/11/29 09:19:58;;;;;;;3.60;3.30;;;2.80;99.90;;;;;;5058867;28;20443;-85
2021/11/29 09:22:36;;;;;;;10.23;3.27;;;2.90;99.90;;;;;;5074381;28;20436;-86
2021/11/29 10:41:18;;;;;;;6.63;2.97;;;4.60;99.90;;;;;;5319673;22;20229;-86
2021/11/29 11:12:33;;;;;;;6.63;2.73;;;4.90;99.90;;;;;;5206693;22;20217;-87
2021/11/29 11:15:16;;;;;;;10.67;2.30;;;5.00;99.90;;;;;;5118622;28;20434;-85
2021/11/29 11:18:19;;;;;;;6.07;1.77;;;5.10;99.90;;;;;;5213539;22;20494;-87
2021/11/29 11:21:28;;;;;;;10.80;2.23;;;5.30;99.90;;;;;;5096791;28;20438;-86
2021/11/29 11:27:22;;;;;;;7.53;2.20;;;5.70;99.90;;;;;;5096674;28;20201;-84
2021/11/29 11:30:03;;;;;;;5.20;2.30;;;6.00;99.90;;;;;;5096620;28;20228;-87
2021/11/29 11:35:24;;;;;;;5.80;1.40;;;6.20;99.90;;;;;;5092578;28;20212;-87
2021/11/29 11:38:07;;;;;;;4.13;1.70;;;6.30;99.90;;;;;;5073867;28;20196;-86
2021/11/29 11:47:26;;;;;;;4.20;1.23;;;6.40;99.90;;;;;;5085093;28;20210;-85
2021/11/29 11:49:55;;;;;;;5.57;2.53;;;6.30;99.90;;;;;;5132735;22;20224;-86
2021/11/29 11:55:18;;;;;;;9.13;2.00;;;6.10;99.90;;;;;;5093996;28;20227;-86
2021/11/29 11:57:50;;;;;;;3.93;1.90;;;6.10;99.90;;;;;;5093826;28;20205;-86
2021/11/29 12:00:50;;;;;;;5.40;1.70;;;6.20;99.90;;;;;;5098089;28;20227;-86
2021/11/29 12:04:05;;;;;;;5.60;1.50;;;6.30;99.90;;;;;;5078426;28;20415;-87
2021/11/29 12:55:03;;;;;;;4.60;1.50;;;6.70;99.90;;;;;;5115368;22;20239;-86
2021/11/29 12:57:37;;;;;;;7.23;1.63;;;6.70;99.90;;;;;;5116697;28;20193;-80
2021/11/29 13:08:58;;;;;;;4.93;1.30;;;6.70;99.90;;;;;;5075323;28;20224;-87
2021/11/29 13:11:35;;;;;;;4.32;1.50;;;6.70;99.90;;;;;;5076683;28;20415;-86
2021/11/29 13:14:10;;;;;;;4.40;1.67;;;6.80;99.90;;;;;;5074607;28;20257;-85
2021/11/29 13:16:48;;;;;;;5.27;1.33;;;6.80;99.90;;;;;;5093536;28;20207;-86
2021/11/29 13:19:52;;;;;;;6.83;1.83;;;6.70;99.90;;;;;;5092529;28;20201;-86
2021/11/29 13:22:31;;;;;;;3.67;2.13;;;6.60;99.90;;;;;;5315808;23;20213;-86
2021/11/29 13:25:00;;;;;;;8.07;1.40;;;6.50;99.90;;;;;;5093001;28;20304;-86
2021/11/29 13:27:46;;;;;;;4.50;1.37;;;6.50;99.90;;;;;;5094239;28;20228;-86
2021/11/29 13:30:22;;;;;;;6.60;1.20;;;6.40;99.90;;;;;;5095530;28;20185;-86
2021/11/29 13:32:51;;;;;;;6.47;1.57;;;6.50;99.90;;;;;;5092723;28;20209;-86
2021/11/29 13:35:31;;;;;;;5.40;1.23;;;6.40;99.90;;;;;;5093753;28;20202;-86
2021/11/29 13:38:00;;;;;;;4.03;1.17;;;6.30;99.90;;;;;;5094568;28;20236;-83
2021/11/29 13:40:34;;;;;;;5.37;1.00;;;6.30;99.90;;;;;;5093239;28;20217;-84
2021/11/29 13:43:05;;;;;;;3.00;1.27;;;6.30;99.90;;;;;;5089346;28;20218;-85
2021/11/29 13:45:43;;;;;;;4.03;1.50;;;6.10;99.90;;;;;;5092627;28;20213;-85
2021/11/29 13:51:19;;;;;;;11.23;1.90;;;6.20;99.90;;;;;;5099348;28;20205;-85
2021/11/29 13:53:57;;;;;;;2.97;1.50;;;6.20;99.90;;;;;;5094083;28;20213;-85
2021/11/29 13:56:27;;;;;;;4.93;1.70;;;6.10;99.90;;;;;;5093761;28;20209;-86
2021/11/29 13:59:01;;;;;;;4.73;1.67;;;6.00;99.90;;;;;;5092492;28;20202;-85
2021/11/29 14:01:30;;;;;;;6.63;1.90;;;6.10;99.90;;;;;;5091622;28;20202;-85
2021/11/29 14:04:05;;;;;;;5.67;2.00;;;5.90;99.90;;;;;;5090464;28;20580;-85
2021/11/29 14:06:33;;;;;;;6.33;1.87;;;5.90;99.90;;;;;;5090547;28;20237;-85
2021/11/29 14:09:03;;;;;;;8.53;2.03;;;5.90;99.90;;;;;;5090124;28;20209;-86
2021/11/29 14:11:38;;;;;;;8.90;2.03;;;5.90;99.90;;;;;;5097237;28;20297;-87
2021/11/29 14:14:48;;;;;;;4.20;1.73;;;5.90;99.90;;;;;;5077302;28;20206;-86
2021/11/29 14:17:30;;;;;;;6.53;2.33;;;5.90;99.90;;;;;;5078053;28;20217;-86
2021/11/29 14:20:00;;;;;;;8.87;1.80;;;5.90;99.90;;;;;;5097367;28;20198;-85
2021/11/29 14:22:31;;;;;;;6.03;1.80;;;6.00;99.90;;;;;;5097908;28;20202;-86
2021/11/29 14:25:05;;;;;;;6.60;1.83;;;6.00;99.90;;;;;;5098069;28;20263;-86
2021/11/29 14:27:34;;;;;;;7.20;3.07;;;6.00;99.90;;;;;;5098295;28;20206;-86
2021/11/29 14:30:09;;;;;;;5.20;1.80;;;6.00;99.90;;;;;;5095910;28;20202;-85
2021/11/29 14:32:43;;;;;;;4.73;1.70;;;6.00;99.90;;;;;;5091839;28;20189;-85
2021/11/29 14:35:16;;;;;;;6.80;1.60;;;6.10;99.90;;;;;;5091758;28;20237;-85
2021/11/29 14:37:44;;;;;;;4.97;2.10;;;6.00;99.90;;;;;;5077107;28;20232;-84
2021/11/29 14:40:15;;;;;;;7.60;1.87;;;5.90;99.90;;;;;;5092298;28;20226;-85
2021/11/29 14:42:51;;;;;;;4.37;1.53;;;6.00;99.90;;;;;;5093340;28;20219;-84
2021/11/29 14:45:26;;;;;;;4.70;1.40;;;6.00;99.90;;;;;;5092677;28;20236;-85
2021/11/29 14:47:56;;;;;;;4.57;1.60;;;6.00;99.90;;;;;;5092554;28;20197;-85
2021/11/29 14:50:26;;;;;;;7.17;1.77;;;6.10;99.90;;;;;;5074259;28;20206;-85
2021/11/29 14:52:59;;;;;;;8.57;1.50;;;6.00;99.90;;;;;;5091477;28;20197;-85
2021/11/29 14:55:36;;;;;;;6.07;1.73;;;6.00;99.90;;;;;;5092773;28;20237;-85
2021/11/29 14:58:14;;;;;;;3.47;1.03;;;6.00;99.90;;;;;;5093549;28;20254;-85
2021/11/29 15:00:51;;;;;;;4.07;1.33;;;6.20;99.90;;;;;;5093695;28;20198;-85
2021/11/29 15:03:25;;;;;;;8.30;1.47;;;6.30;99.90;;;;;;5095426;28;20255;-83
2021/11/29 15:05:55;;;;;;;6.40;1.53;;;6.40;99.90;;;;;;5094541;28;20635;-84
2021/11/29 15:08:31;;;;;;;7.03;1.80;;;6.30;99.90;;;;;;5094052;28;20289;-85
2021/11/29 15:11:06;;;;;;;2.80;1.33;;;6.40;99.90;;;;;;5090365;28;20205;-85
2021/11/29 15:13:42;;;;;;;3.97;1.50;;;6.50;99.90;;;;;;5092014;28;20225;-85
2021/11/29 15:39:00;;;;;;;4.93;1.67;;;5.70;99.90;;;;;;5074187;28;20229;-84
2021/11/29 15:44:44;;;;;;;3.90;2.50;;;5.40;99.90;;;;;;5092662;28;20247;-87
2021/11/29 16:09:13;;;;;;;8.33;2.30;;;5.10;99.90;;;;;;3935577;22;20585;-84
2021/11/29 16:11:46;;;;;;;6.97;2.77;;;5.10;99.90;;;;;;5086698;28;20198;-83
2021/11/29 16:14:28;;;;;;;5.83;2.60;;;5.20;99.90;;;;;;5090622;28;20185;-84
2021/11/29 16:20:14;;;;;;;4.70;3.00;;;5.20;99.90;;;;;;5093006;28;20204;-86
2021/11/29 16:22:48;;;;;;;11.50;3.70;;;5.00;99.90;;;;;;5092259;28;20194;-87
2021/11/29 16:29:49;;;;;;;9.03;3.57;;;5.00;99.90;;;;;;5088964;28;20240;-86
2021/11/29 16:33:02;;;;;;;8.77;4.45;;;5.10;99.90;;;;;;5077509;28;20441;-84
2021/11/29 16:41:52;;;;;;;10.17;3.73;;;5.30;99.90;;;;;;5017401;28;20291;-85
2021/11/29 16:44:38;;;;;;;11.37;3.23;;;5.20;99.90;;;;;;5017362;28;20208;-85
2021/11/29 16:47:21;;;;;;;9.70;4.87;;;5.10;99.90;;;;;;5046864;28;20199;-85
2021/11/29 16:52:56;;;;;;;13.50;5.50;;;5.20;99.90;;;;;;5016644;28;20207;-85
2021/11/29 16:55:50;;;;;;;8.43;4.73;;;5.20;99.90;;;;;;5015199;28;20215;-85
2021/11/29 16:58:40;;;;;;;15.80;4.63;;;5.30;99.90;;;;;;5013790;28;20232;-85
2021/11/29 17:01:15;;;;;;;8.53;4.90;;;5.20;99.90;;;;;;5015259;28;20252;-84
2021/11/29 17:03:54;;;;;;;9.33;4.00;;;5.00;99.90;;;;;;5015460;28;20204;-85
2021/11/29 17:06:22;;;;;;;13.17;4.57;;;5.10;99.90;;;;;;5014347;28;20204;-85
2021/11/29 17:08:52;;;;;;;11.70;4.20;;;5.00;99.90;;;;;;5014931;28;20213;-85
2021/11/29 17:11:22;;;;;;;15.13;4.50;;;4.90;99.90;;;;;;5014259;28;20211;-85
2021/11/29 17:14:02;;;;;;;10.13;3.97;;;5.00;99.90;;;;;;5014573;28;20211;-85
2021/11/29 18:32:08;;;;;;;13.13;5.07;;;4.80;99.90;;;;;;5098519;28;20188;-87
2021/11/29 19:20:05;;;;;;;10.97;6.27;;;4.70;99.90;;;;;;5075583;28;20419;-86
2021/11/29 19:23:09;;;;;;;9.20;6.07;;;4.60;99.90;;;;;;5074153;28;20519;-88
2021/11/29 21:53:50;;;;;;;11.97;6.33;;;3.80;99.90;;;;;;5039117;28;20178;-87
2021/11/29 21:56:55;;;;;;;12.07;6.87;;;3.80;99.90;;;;;;5038811;28;20488;-88
2021/11/29 22:03:43;;;;;;;8.60;6.07;;;4.00;99.90;;;;;;5019096;28;20430;-88
2021/11/29 22:19:32;;;;;;;14.20;5.87;;;4.20;99.90;;;;;;5163024;23;20500;-89
2021/11/29 22:23:01;;;;;;;12.77;5.87;;;4.30;99.90;;;;;;5228155;22;20482;-88
2021/11/29 22:26:12;;;;;;;12.70;5.87;;;4.20;99.90;;;;;;5099327;28;20457;-87
2021/11/29 22:38:47;;;;;;;11.70;5.30;;;4.40;99.90;;;;;;5099085;28;20474;-86
2021/11/29 22:44:39;;;;;;;10.87;5.23;;;4.50;99.90;;;;;;5099166;28;20423;-87
2021/11/29 22:47:34;;;;;;;8.47;4.70;;;4.50;99.90;;;;;;5098004;28;20429;-86
2021/11/29 22:50:53;;;;;;;6.50;4.80;;;4.60;99.90;;;;;;5098997;28;20456;-87
2021/11/29 23:06:46;;;;;;;11.90;5.43;;;4.60;99.90;;;;;;5078630;28;20434;-85
2021/11/29 23:10:25;;;;;;;8.20;4.80;;;4.60;99.90;;;;;;5078456;28;20473;-87
2021/11/29 23:16:50;;;;;;;11.37;5.50;;;4.60;99.90;;;;;;5036842;28;20445;-86
2021/11/29 23:28:47;;;;;;;13.07;5.60;;;4.60;99.90;;;;;;5038515;28;20439;-86
2021/11/29 23:31:28;;;;;;;12.10;5.70;;;4.60;99.90;;;;;;5038233;28;20413;-87
2021/11/29 23:34:21;;;;;;;10.10;5.10;;;4.50;99.90;;;;;;5039163;28;20219;-88
2021/11/29 23:36:57;;;;;;;14.73;5.60;;;4.50;99.90;;;;;;5037790;28;20433;-87
2021/11/29 23:39:54;;;;;;;7.80;5.23;;;4.60;99.90;;;;;;5039649;28;20650;-87
2021/11/29 23:42:50;;;;;;;9.20;4.97;;;4.60;99.90;;;;;;5042650;28;20180;-88
2021/11/29 23:45:59;;;;;;;9.93;4.70;;;4.60;99.90;;;;;;5041446;28;20199;-88
